sensor_id;sensor_type;location;lat;lon;timestamp;temperature;humidity
20598;DHT22;10457;48.770;11.446;2022-12-07T00:05:06;3.00;99.90
20598;DHT22;10457;48.770;11.446;2022-12-07T00:10:27;3.00;99.90
20598;DHT22;10457;48.770;11.446;2022-12-07T00:15:49;3.00;99.90
20598;DHT22;10457;48.770;11.446;2022-12-07T00:21:15;2.90;99.90
20598;DHT22;10457;48.770;11.446;2022-12-07T00:26:41;3.00;99.90
20598;DHT22;10457;48.770;11.446;2022-12-07T00:32:04;3.00;99.90
20598;DHT22;10457;48.770;11.446;2022-12-07T00:37:26;3.00;99.90
20598;DHT22;10457;48.770;11.446;2022-12-07T00:42:48;3.00;99.90
20598;DHT22;10457;48.770;11.446;2022-12-07T00:48:09;3.00;99.90
20598;DHT22;10457;48.770;11.446;2022-12-07T00:53:34;3.00;99.90
20598;DHT22;10457;48.770;11.446;2022-12-07T00:58:57;2.90;99.90
20598;DHT22;10457;48.770;11.446;2022-12-07T01:04:19;3.00;99.90
20598;DHT22;10457;48.770;11.446;2022-12-07T01:09:45;3.00;99.90
20598;DHT22;10457;48.770;11.446;2022-12-07T01:15:08;3.10;99.90
20598;DHT22;10457;48.770;11.446;2022-12-07T01:20:29;3.10;99.90
20598;DHT22;10457;48.770;11.446;2022-12-07T01:25:55;3.10;99.90
20598;DHT22;10457;48.770;11.446;2022-12-07T01:31:18;3.00;99.90
20598;DHT22;10457;48.770;11.446;2022-12-07T01:36:40;2.90;99.90
20598;DHT22;10457;48.770;11.446;2022-12-07T01:42:03;3.00;99.90
20598;DHT22;10457;48.770;11.446;2022-12-07T01:47:25;2.90;99.90
20598;DHT22;10457;48.770;11.446;2022-12-07T01:52:49;2.90;99.90
20598;DHT22;10457;48.770;11.446;2022-12-07T01:58:14;2.80;99.90
20598;DHT22;10457;48.770;11.446;2022-12-07T02:03:39;2.90;99.90
20598;DHT22;10457;48.770;11.446;2022-12-07T02:09:02;2.90;99.90
20598;DHT22;10457;48.770;11.446;2022-12-07T02:14:25;2.80;99.90
20598;DHT22;10457;48.770;11.446;2022-12-07T02:20:22;2.90;99.90
20598;DHT22;10457;48.770;11.446;2022-12-07T02:32:13;2.80;99.90
20598;DHT22;10457;48.770;11.446;2022-12-07T02:37:42;2.80;99.90
20598;DHT22;10457;48.770;11.446;2022-12-07T02:43:13;2.80;99.90
20598;DHT22;10457;48.770;11.446;2022-12-07T02:48:39;2.70;99.90
20598;DHT22;10457;48.770;11.446;2022-12-07T02:54:07;2.60;99.90
20598;DHT22;10457;48.770;11.446;2022-12-07T02:59:40;2.60;99.90
20598;DHT22;10457;48.770;11.446;2022-12-07T03:11:03;2.70;99.90
20598;DHT22;10457;48.770;11.446;2022-12-07T03:16:28;2.60;99.90
20598;DHT22;10457;48.770;11.446;2022-12-07T03:21:57;2.60;99.90
20598;DHT22;10457;48.770;11.446;2022-12-07T03:27:23;2.70;99.90
20598;DHT22;10457;48.770;11.446;2022-12-07T03:32:50;2.60;99.90
20598;DHT22;10457;48.770;11.446;2022-12-07T03:38:20;2.60;99.90
20598;DHT22;10457;48.770;11.446;2022-12-07T03:43:43;2.60;99.90
20598;DHT22;10457;48.770;11.446;2022-12-07T03:49:11;2.80;99.90
20598;DHT22;10457;48.770;11.446;2022-12-07T03:54:39;2.80;99.90
20598;DHT22;10457;48.770;11.446;2022-12-07T04:00:05;2.60;99.90
20598;DHT22;10457;48.770;11.446;2022-12-07T04:05:34;2.70;99.90
20598;DHT22;10457;48.770;11.446;2022-12-07T04:10:58;2.60;99.90
20598;DHT22;10457;48.770;11.446;2022-12-07T04:16:21;2.70;99.90
20598;DHT22;10457;48.770;11.446;2022-12-07T04:21:42;2.70;99.90
20598;DHT22;10457;48.770;11.446;2022-12-07T04:27:05;2.70;99.90
20598;DHT22;10457;48.770;11.446;2022-12-07T04:32:27;2.60;99.90
20598;DHT22;10457;48.770;11.446;2022-12-07T04:37:48;2.60;99.90
20598;DHT22;10457;48.770;11.446;2022-12-07T04:43:11;2.40;99.90
20598;DHT22;10457;48.770;11.446;2022-12-07T04:48:32;2.30;99.90
20598;DHT22;10457;48.770;11.446;2022-12-07T04:53:55;2.40;99.90
20598;DHT22;10457;48.770;11.446;2022-12-07T04:59:19;2.30;99.90
20598;DHT22;10457;48.770;11.446;2022-12-07T05:04:40;2.30;99.90
20598;DHT22;10457;48.770;11.446;2022-12-07T05:10:02;2.40;99.90
20598;DHT22;10457;48.770;11.446;2022-12-07T05:15:25;2.20;99.90
20598;DHT22;10457;48.770;11.446;2022-12-07T05:20:48;2.20;99.90
20598;DHT22;10457;48.770;11.446;2022-12-07T05:26:11;2.20;99.90
20598;DHT22;10457;48.770;11.446;2022-12-07T05:31:33;2.10;99.90
20598;DHT22;10457;48.770;11.446;2022-12-07T05:36:55;2.10;99.90
20598;DHT22;10457;48.770;11.446;2022-12-07T05:42:16;2.00;99.90
20598;DHT22;10457;48.770;11.446;2022-12-07T05:47:42;2.00;99.90
20598;DHT22;10457;48.770;11.446;2022-12-07T05:53:03;1.80;99.90
20598;DHT22;10457;48.770;11.446;2022-12-07T05:58:25;1.70;99.90
20598;DHT22;10457;48.770;11.446;2022-12-07T06:04:08;1.50;99.90
20598;DHT22;10457;48.770;11.446;2022-12-07T06:09:55;1.50;99.90
20598;DHT22;10457;48.770;11.446;2022-12-07T06:15:18;1.50;99.90
20598;DHT22;10457;48.770;11.446;2022-12-07T06:20:41;1.40;99.90
20598;DHT22;10457;48.770;11.446;2022-12-07T06:26:03;1.20;99.90
20598;DHT22;10457;48.770;11.446;2022-12-07T06:31:24;1.10;99.90
20598;DHT22;10457;48.770;11.446;2022-12-07T06:36:47;1.00;99.90
20598;DHT22;10457;48.770;11.446;2022-12-07T06:42:11;0.90;99.90
20598;DHT22;10457;48.770;11.446;2022-12-07T06:47:32;0.90;99.90
20598;DHT22;10457;48.770;11.446;2022-12-07T06:52:55;0.80;99.90
20598;DHT22;10457;48.770;11.446;2022-12-07T06:58:17;0.80;99.90
20598;DHT22;10457;48.770;11.446;2022-12-07T07:03:39;0.90;99.90
20598;DHT22;10457;48.770;11.446;2022-12-07T07:09:01;1.00;99.90
20598;DHT22;10457;48.770;11.446;2022-12-07T07:14:23;1.00;99.90
20598;DHT22;10457;48.770;11.446;2022-12-07T07:19:47;1.10;99.90
20598;DHT22;10457;48.770;11.446;2022-12-07T07:25:09;1.10;99.90
20598;DHT22;10457;48.770;11.446;2022-12-07T07:30:33;1.30;99.90
20598;DHT22;10457;48.770;11.446;2022-12-07T07:35:54;1.30;99.90
20598;DHT22;10457;48.770;11.446;2022-12-07T07:41:17;1.50;99.90
20598;DHT22;10457;48.770;11.446;2022-12-07T07:46:39;1.60;99.90
20598;DHT22;10457;48.770;11.446;2022-12-07T07:52:02;1.90;99.90
20598;DHT22;10457;48.770;11.446;2022-12-07T07:57:25;2.10;99.90
20598;DHT22;10457;48.770;11.446;2022-12-07T08:02:47;2.30;99.90
20598;DHT22;10457;48.770;11.446;2022-12-07T08:08:08;2.50;99.90
20598;DHT22;10457;48.770;11.446;2022-12-07T08:13:31;2.70;99.90
20598;DHT22;10457;48.770;11.446;2022-12-07T08:18:53;3.00;99.90
20598;DHT22;10457;48.770;11.446;2022-12-07T08:24:14;3.10;99.90
20598;DHT22;10457;48.770;11.446;2022-12-07T08:29:38;3.30;93.30
20598;DHT22;10457;48.770;11.446;2022-12-07T08:34:59;3.40;92.20
20598;DHT22;10457;48.770;11.446;2022-12-07T08:40:24;3.20;94.40
20598;DHT22;10457;48.770;11.446;2022-12-07T08:45:48;3.10;95.50
20598;DHT22;10457;48.770;11.446;2022-12-07T08:51:12;3.10;97.50
20598;DHT22;10457;48.770;11.446;2022-12-07T08:56:35;3.00;97.40
20598;DHT22;10457;48.770;11.446;2022-12-07T09:01:58;3.10;97.30
20598;DHT22;10457;48.770;11.446;2022-12-07T09:07:24;3.20;95.80
20598;DHT22;10457;48.770;11.446;2022-12-07T09:12:46;3.10;95.10
20598;DHT22;10457;48.770;11.446;2022-12-07T09:18:09;3.10;95.20
20598;DHT22;10457;48.770;11.446;2022-12-07T09:23:30;3.20;95.00
20598;DHT22;10457;48.770;11.446;2022-12-07T09:28:52;3.30;94.10
20598;DHT22;10457;48.770;11.446;2022-12-07T09:34:14;3.30;92.80
20598;DHT22;10457;48.770;11.446;2022-12-07T09:39:37;3.40;93.20
20598;DHT22;10457;48.770;11.446;2022-12-07T09:45:00;3.60;91.60
20598;DHT22;10457;48.770;11.446;2022-12-07T09:50:25;3.60;90.40
20598;DHT22;10457;48.770;11.446;2022-12-07T09:55:48;3.60;90.70
20598;DHT22;10457;48.770;11.446;2022-12-07T10:01:13;3.50;90.40
20598;DHT22;10457;48.770;11.446;2022-12-07T10:06:36;3.70;90.20
20598;DHT22;10457;48.770;11.446;2022-12-07T10:11:59;3.90;87.50
20598;DHT22;10457;48.770;11.446;2022-12-07T10:17:47;3.80;87.50
20598;DHT22;10457;48.770;11.446;2022-12-07T10:23:15;3.90;87.20
20598;DHT22;10457;48.770;11.446;2022-12-07T10:28:37;3.90;85.40
20598;DHT22;10457;48.770;11.446;2022-12-07T10:34:00;3.80;85.60
20598;DHT22;10457;48.770;11.446;2022-12-07T10:39:26;3.90;87.00
20598;DHT22;10457;48.770;11.446;2022-12-07T10:44:48;3.90;86.40
20598;DHT22;10457;48.770;11.446;2022-12-07T10:50:18;4.10;83.90
20598;DHT22;10457;48.770;11.446;2022-12-07T10:56:31;4.10;84.10
20598;DHT22;10457;48.770;11.446;2022-12-07T11:02:21;4.10;84.40
20598;DHT22;10457;48.770;11.446;2022-12-07T11:07:54;4.30;84.10
20598;DHT22;10457;48.770;11.446;2022-12-07T11:13:27;4.30;82.00
20598;DHT22;10457;48.770;11.446;2022-12-07T11:19:06;4.30;83.00
20598;DHT22;10457;48.770;11.446;2022-12-07T11:24:50;4.40;83.40
20598;DHT22;10457;48.770;11.446;2022-12-07T11:30:22;4.30;81.40
20598;DHT22;10457;48.770;11.446;2022-12-07T11:35:54;4.20;80.80
20598;DHT22;10457;48.770;11.446;2022-12-07T11:41:25;4.30;81.40
20598;DHT22;10457;48.770;11.446;2022-12-07T11:46:55;4.30;80.00
20598;DHT22;10457;48.770;11.446;2022-12-07T11:52:26;4.30;80.40
20598;DHT22;10457;48.770;11.446;2022-12-07T11:57:56;4.20;81.00
20598;DHT22;10457;48.770;11.446;2022-12-07T12:03:26;4.30;80.70
20598;DHT22;10457;48.770;11.446;2022-12-07T12:08:55;4.30;80.40
20598;DHT22;10457;48.770;11.446;2022-12-07T12:14:32;4.30;80.70
20598;DHT22;10457;48.770;11.446;2022-12-07T12:20:13;4.10;80.00
20598;DHT22;10457;48.770;11.446;2022-12-07T12:25:41;4.20;82.10
20598;DHT22;10457;48.770;11.446;2022-12-07T12:31:07;4.40;79.80
20598;DHT22;10457;48.770;11.446;2022-12-07T12:36:46;4.40;79.80
20598;DHT22;10457;48.770;11.446;2022-12-07T12:42:18;4.40;79.70
20598;DHT22;10457;48.770;11.446;2022-12-07T12:47:55;4.60;77.90
20598;DHT22;10457;48.770;11.446;2022-12-07T12:53:25;4.60;76.60
20598;DHT22;10457;48.770;11.446;2022-12-07T12:58:47;4.60;77.50
20598;DHT22;10457;48.770;11.446;2022-12-07T13:04:34;4.70;78.30
20598;DHT22;10457;48.770;11.446;2022-12-07T13:10:01;4.70;78.30
20598;DHT22;10457;48.770;11.446;2022-12-07T13:15:35;4.70;78.20
20598;DHT22;10457;48.770;11.446;2022-12-07T13:20:58;4.60;78.30
20598;DHT22;10457;48.770;11.446;2022-12-07T13:26:23;4.70;79.10
20598;DHT22;10457;48.770;11.446;2022-12-07T13:31:49;4.70;78.30
20598;DHT22;10457;48.770;11.446;2022-12-07T13:37:14;4.60;79.70
20598;DHT22;10457;48.770;11.446;2022-12-07T13:42:44;4.60;80.80
20598;DHT22;10457;48.770;11.446;2022-12-07T13:48:05;4.60;81.10
20598;DHT22;10457;48.770;11.446;2022-12-07T13:53:27;4.50;81.60
20598;DHT22;10457;48.770;11.446;2022-12-07T13:58:51;4.50;82.60
20598;DHT22;10457;48.770;11.446;2022-12-07T14:04:17;4.40;83.30
20598;DHT22;10457;48.770;11.446;2022-12-07T14:09:57;4.40;82.30
20598;DHT22;10457;48.770;11.446;2022-12-07T14:15:22;4.50;82.10
20598;DHT22;10457;48.770;11.446;2022-12-07T14:20:45;4.40;82.30
20598;DHT22;10457;48.770;11.446;2022-12-07T14:26:09;4.20;83.90
20598;DHT22;10457;48.770;11.446;2022-12-07T14:31:34;4.20;84.10
20598;DHT22;10457;48.770;11.446;2022-12-07T14:36:57;4.10;83.70
20598;DHT22;10457;48.770;11.446;2022-12-07T14:42:20;4.10;83.80
20598;DHT22;10457;48.770;11.446;2022-12-07T14:47:48;4.20;84.10
20598;DHT22;10457;48.770;11.446;2022-12-07T14:53:11;4.10;83.60
20598;DHT22;10457;48.770;11.446;2022-12-07T14:58:34;4.10;84.00
20598;DHT22;10457;48.770;11.446;2022-12-07T15:03:57;4.00;84.20
20598;DHT22;10457;48.770;11.446;2022-12-07T15:09:18;4.00;84.40
20598;DHT22;10457;48.770;11.446;2022-12-07T15:14:40;4.00;84.40
20598;DHT22;10457;48.770;11.446;2022-12-07T15:20:04;4.10;85.40
20598;DHT22;10457;48.770;11.446;2022-12-07T15:25:26;4.00;84.90
20598;DHT22;10457;48.770;11.446;2022-12-07T15:30:47;3.90;85.80
20598;DHT22;10457;48.770;11.446;2022-12-07T15:36:18;4.20;85.50
20598;DHT22;10457;48.770;11.446;2022-12-07T15:41:41;4.00;87.00
20598;DHT22;10457;48.770;11.446;2022-12-07T15:47:04;3.90;87.20
20598;DHT22;10457;48.770;11.446;2022-12-07T15:52:29;3.80;88.10
20598;DHT22;10457;48.770;11.446;2022-12-07T15:57:50;3.70;89.70
20598;DHT22;10457;48.770;11.446;2022-12-07T16:03:12;3.70;89.50
20598;DHT22;10457;48.770;11.446;2022-12-07T16:09:00;3.70;90.20
20598;DHT22;10457;48.770;11.446;2022-12-07T16:14:21;3.70;91.30
20598;DHT22;10457;48.770;11.446;2022-12-07T16:19:46;3.80;90.10
20598;DHT22;10457;48.770;11.446;2022-12-07T16:25:09;3.80;90.20
20598;DHT22;10457;48.770;11.446;2022-12-07T16:30:30;3.80;91.30
20598;DHT22;10457;48.770;11.446;2022-12-07T16:35:52;3.70;91.80
20598;DHT22;10457;48.770;11.446;2022-12-07T16:41:14;3.70;93.10
20598;DHT22;10457;48.770;11.446;2022-12-07T16:46:36;3.60;93.00
20598;DHT22;10457;48.770;11.446;2022-12-07T16:51:58;3.60;94.30
20598;DHT22;10457;48.770;11.446;2022-12-07T16:57:20;3.60;94.60
20598;DHT22;10457;48.770;11.446;2022-12-07T17:02:41;3.60;94.50
20598;DHT22;10457;48.770;11.446;2022-12-07T17:08:03;3.60;93.70
20598;DHT22;10457;48.770;11.446;2022-12-07T17:13:32;3.60;94.90
20598;DHT22;10457;48.770;11.446;2022-12-07T17:19:13;3.50;94.70
20598;DHT22;10457;48.770;11.446;2022-12-07T17:24:35;3.50;95.20
20598;DHT22;10457;48.770;11.446;2022-12-07T17:29:58;3.40;95.60
20598;DHT22;10457;48.770;11.446;2022-12-07T17:35:19;3.60;95.90
20598;DHT22;10457;48.770;11.446;2022-12-07T17:40:41;3.60;94.80
20598;DHT22;10457;48.770;11.446;2022-12-07T17:46:07;3.50;95.80
20598;DHT22;10457;48.770;11.446;2022-12-07T17:51:28;3.40;95.10
20598;DHT22;10457;48.770;11.446;2022-12-07T17:57:07;3.40;95.50
20598;DHT22;10457;48.770;11.446;2022-12-07T18:02:30;3.50;95.90
20598;DHT22;10457;48.770;11.446;2022-12-07T18:07:52;3.60;95.00
20598;DHT22;10457;48.770;11.446;2022-12-07T18:13:14;3.50;96.10
20598;DHT22;10457;48.770;11.446;2022-12-07T18:18:58;3.40;96.50
20598;DHT22;10457;48.770;11.446;2022-12-07T18:24:19;3.50;96.00
20598;DHT22;10457;48.770;11.446;2022-12-07T18:29:41;3.50;95.30
20598;DHT22;10457;48.770;11.446;2022-12-07T18:35:05;3.40;95.40
20598;DHT22;10457;48.770;11.446;2022-12-07T18:40:27;3.30;96.40
20598;DHT22;10457;48.770;11.446;2022-12-07T18:46:16;3.50;96.20
20598;DHT22;10457;48.770;11.446;2022-12-07T18:51:43;3.40;98.20
20598;DHT22;10457;48.770;11.446;2022-12-07T18:57:33;3.40;98.20
20598;DHT22;10457;48.770;11.446;2022-12-07T19:02:55;3.40;98.90
20598;DHT22;10457;48.770;11.446;2022-12-07T19:08:23;3.30;98.30
20598;DHT22;10457;48.770;11.446;2022-12-07T19:13:45;3.30;99.10
20598;DHT22;10457;48.770;11.446;2022-12-07T19:19:07;3.30;99.60
20598;DHT22;10457;48.770;11.446;2022-12-07T19:24:30;3.30;99.90
20598;DHT22;10457;48.770;11.446;2022-12-07T19:30:28;3.20;99.90
20598;DHT22;10457;48.770;11.446;2022-12-07T19:35:49;3.30;99.90
20598;DHT22;10457;48.770;11.446;2022-12-07T19:41:13;3.30;99.90
20598;DHT22;10457;48.770;11.446;2022-12-07T19:46:49;3.30;99.90
20598;DHT22;10457;48.770;11.446;2022-12-07T19:52:12;3.30;99.90
20598;DHT22;10457;48.770;11.446;2022-12-07T19:57:36;3.20;99.90
20598;DHT22;10457;48.770;11.446;2022-12-07T20:02:58;3.20;99.90
20598;DHT22;10457;48.770;11.446;2022-12-07T20:08:19;3.20;99.90
20598;DHT22;10457;48.770;11.446;2022-12-07T20:13:42;3.00;99.90
20598;DHT22;10457;48.770;11.446;2022-12-07T20:19:03;3.00;99.90
20598;DHT22;10457;48.770;11.446;2022-12-07T20:24:25;3.00;99.90
20598;DHT22;10457;48.770;11.446;2022-12-07T20:29:48;2.90;99.90
20598;DHT22;10457;48.770;11.446;2022-12-07T20:35:10;3.00;99.90
20598;DHT22;10457;48.770;11.446;2022-12-07T20:40:31;3.10;99.90
20598;DHT22;10457;48.770;11.446;2022-12-07T20:46:00;3.20;99.90
20598;DHT22;10457;48.770;11.446;2022-12-07T20:51:21;3.20;99.90
20598;DHT22;10457;48.770;11.446;2022-12-07T20:56:50;3.20;99.90
20598;DHT22;10457;48.770;11.446;2022-12-07T21:02:17;3.20;99.90
20598;DHT22;10457;48.770;11.446;2022-12-07T21:07:41;3.10;99.90
20598;DHT22;10457;48.770;11.446;2022-12-07T21:13:02;3.20;99.90
20598;DHT22;10457;48.770;11.446;2022-12-07T21:18:25;3.00;99.90
20598;DHT22;10457;48.770;11.446;2022-12-07T21:23:48;2.90;99.90
20598;DHT22;10457;48.770;11.446;2022-12-07T21:29:10;2.80;99.90
20598;DHT22;10457;48.770;11.446;2022-12-07T21:34:33;2.80;99.90
20598;DHT22;10457;48.770;11.446;2022-12-07T21:39:54;2.70;99.90
20598;DHT22;10457;48.770;11.446;2022-12-07T21:45:16;2.70;99.90
20598;DHT22;10457;48.770;11.446;2022-12-07T21:50:39;2.90;99.90
20598;DHT22;10457;48.770;11.446;2022-12-07T21:56:00;2.90;99.90
20598;DHT22;10457;48.770;11.446;2022-12-07T22:01:25;2.80;99.90
20598;DHT22;10457;48.770;11.446;2022-12-07T22:06:51;2.60;99.90
20598;DHT22;10457;48.770;11.446;2022-12-07T22:12:16;2.50;99.90
20598;DHT22;10457;48.770;11.446;2022-12-07T22:18:02;2.40;99.90
20598;DHT22;10457;48.770;11.446;2022-12-07T22:23:25;2.50;99.90
20598;DHT22;10457;48.770;11.446;2022-12-07T22:28:46;2.40;99.90
20598;DHT22;10457;48.770;11.446;2022-12-07T22:34:14;2.40;99.90
20598;DHT22;10457;48.770;11.446;2022-12-07T22:39:37;2.50;99.90
20598;DHT22;10457;48.770;11.446;2022-12-07T22:44:59;2.60;99.90
20598;DHT22;10457;48.770;11.446;2022-12-07T22:50:20;2.50;99.90
20598;DHT22;10457;48.770;11.446;2022-12-07T22:55:44;2.60;99.90
20598;DHT22;10457;48.770;11.446;2022-12-07T23:01:06;2.50;99.90
20598;DHT22;10457;48.770;11.446;2022-12-07T23:06:29;2.50;99.90
20598;DHT22;10457;48.770;11.446;2022-12-07T23:11:54;2.70;99.90
20598;DHT22;10457;48.770;11.446;2022-12-07T23:17:34;2.50;99.90
20598;DHT22;10457;48.770;11.446;2022-12-07T23:22:55;2.40;99.90
20598;DHT22;10457;48.770;11.446;2022-12-07T23:28:18;2.50;99.90
20598;DHT22;10457;48.770;11.446;2022-12-07T23:33:40;2.50;99.90
20598;DHT22;10457;48.770;11.446;2022-12-07T23:39:04;2.30;99.90
20598;DHT22;10457;48.770;11.446;2022-12-07T23:44:27;2.30;99.90
20598;DHT22;10457;48.770;11.446;2022-12-07T23:49:49;2.20;99.90
20598;DHT22;10457;48.770;11.446;2022-12-07T23:55:10;2.10;99.90
